createdAt,value
2023-03-05T07:37:41.521Z,8.40
2023-03-05T07:43:45.668Z,8.30
2023-03-05T07:49:48.784Z,8.60
2023-03-05T07:55:53.331Z,10.70
2023-03-05T08:01:56.541Z,9.70
2023-03-05T08:07:59.590Z,9.00
2023-03-05T08:14:02.733Z,10.10
2023-03-05T08:20:10.505Z,10.80
2023-03-05T08:26:15.182Z,9.40
2023-03-05T08:32:18.288Z,8.80
2023-03-05T08:38:21.257Z,9.60
2023-03-05T08:44:24.215Z,10.00
2023-03-05T08:50:27.280Z,9.40
2023-03-05T08:56:31.437Z,9.80
2023-03-05T09:02:35.405Z,9.20
2023-03-05T09:08:39.018Z,8.40
2023-03-05T09:14:42.919Z,8.40
2023-03-05T09:20:46.052Z,11.00
2023-03-05T09:26:49.065Z,10.90
2023-03-05T09:32:52.355Z,11.90
2023-03-05T09:38:55.692Z,8.70
2023-03-05T09:45:20.027Z,10.20
2023-03-05T09:51:26.361Z,11.10
2023-03-05T09:57:39.454Z,10.40
2023-03-05T10:04:07.159Z,10.90
2023-03-05T10:10:14.363Z,10.70
2023-03-05T10:16:56.251Z,10.60
2023-03-05T10:22:59.379Z,10.70
2023-03-05T10:29:17.606Z,10.90
2023-03-05T10:35:32.695Z,10.60
2023-03-05T10:42:02.570Z,10.30
2023-03-05T10:48:13.595Z,11.00
2023-03-05T10:54:25.390Z,10.50
2023-03-05T11:00:30.060Z,11.10
2023-03-05T11:06:37.546Z,12.30
2023-03-05T11:12:40.650Z,10.20
2023-03-05T11:18:49.639Z,8.20
2023-03-05T11:25:22.681Z,7.60
2023-03-05T11:31:30.733Z,8.20
2023-03-05T11:37:42.306Z,7.00
2023-03-05T11:43:45.605Z,6.80
2023-03-05T11:49:51.393Z,8.20
2023-03-05T11:56:13.288Z,7.70
2023-03-05T12:02:22.847Z,6.40
2023-03-05T12:08:33.408Z,5.20
2023-03-05T12:14:46.300Z,4.40
2023-03-05T12:21:08.409Z,5.30
2023-03-05T12:27:15.785Z,5.20
2023-03-05T12:33:38.394Z,4.60
2023-03-05T12:39:51.007Z,5.10
2023-03-05T12:46:23.215Z,5.10
2023-03-05T12:52:31.942Z,4.80
2023-03-05T12:58:42.185Z,4.60
2023-03-05T13:04:47.750Z,4.20
2023-03-05T13:11:18.907Z,4.90
2023-03-05T13:17:29.313Z,5.50
2023-03-05T13:23:34.127Z,7.40
2023-03-05T13:29:52.585Z,7.70
2023-03-05T13:35:56.126Z,7.50
2023-03-05T13:42:14.659Z,7.20
2023-03-05T13:48:20.722Z,5.40
2023-03-05T13:54:25.226Z,6.40
2023-03-05T14:00:35.674Z,6.20
2023-03-05T14:07:03.080Z,6.30
2023-03-05T14:13:13.164Z,6.00
2023-03-05T14:19:36.884Z,5.80
2023-03-05T14:25:40.569Z,6.80
2023-03-05T14:31:51.441Z,6.80
2023-03-05T14:37:57.121Z,6.50
2023-03-05T14:44:09.782Z,6.40
2023-03-05T14:50:20.149Z,5.40
2023-03-05T14:56:28.135Z,4.40
2023-03-05T15:02:31.215Z,3.40
2023-03-05T15:08:40.933Z,2.50
2023-03-05T15:14:46.523Z,2.10
2023-03-05T15:20:53.036Z,2.50
2023-03-05T15:33:03.578Z,2.40
2023-03-05T15:39:07.956Z,2.80
2023-03-05T15:45:11.290Z,3.10
2023-03-05T15:51:14.220Z,4.70
2023-03-05T15:57:17.514Z,3.10
2023-03-05T16:03:20.944Z,2.80
2023-03-05T16:09:27.034Z,3.40
2023-03-05T16:15:33.893Z,3.50
2023-03-05T16:21:39.719Z,3.70
2023-03-05T16:27:43.402Z,3.40
2023-03-05T16:33:48.146Z,3.00
2023-03-05T16:39:51.675Z,3.10
2023-03-05T16:45:56.910Z,2.50
2023-03-05T16:52:06.185Z,2.50
2023-03-05T16:58:19.718Z,2.70
2023-03-05T17:04:25.356Z,3.80
2023-03-05T17:10:28.882Z,3.70
2023-03-05T17:16:32.340Z,3.90
2023-03-05T17:22:35.666Z,4.50
2023-03-05T17:28:40.692Z,3.70
2023-03-05T17:34:47.012Z,3.90
2023-03-05T17:40:59.093Z,4.50
2023-03-05T17:47:02.511Z,4.10
2023-03-05T17:53:07.984Z,4.50
2023-03-05T17:59:11.656Z,4.60
2023-03-05T18:05:15.622Z,4.70
2023-03-05T18:11:18.933Z,4.40
2023-03-05T18:17:24.840Z,4.80
2023-03-05T18:23:33.168Z,5.80
2023-03-05T18:29:37.406Z,6.10
2023-03-05T18:35:40.919Z,6.40
2023-03-05T18:41:44.594Z,6.20
2023-03-05T18:47:49.237Z,7.10
2023-03-05T18:53:56.135Z,6.90
2023-03-05T19:00:04.078Z,7.90
2023-03-05T19:06:11.544Z,8.40
2023-03-05T19:12:15.963Z,7.60
2023-03-05T19:18:28.758Z,7.50
2023-03-05T19:24:38.534Z,7.10
2023-03-05T19:30:53.515Z,7.50
2023-03-05T19:37:16.528Z,7.70
2023-03-05T19:43:38.208Z,8.30
2023-03-05T19:49:49.411Z,8.00
2023-03-05T19:55:58.237Z,8.50
2023-03-05T20:02:01.713Z,9.20
2023-03-05T20:08:07.073Z,10.70
2023-03-05T20:14:14.067Z,11.40
2023-03-05T20:20:21.286Z,10.60
2023-03-05T20:26:32.489Z,10.90
2023-03-05T20:32:45.506Z,12.10
2023-03-05T20:38:53.861Z,11.70
2023-03-05T20:44:57.312Z,10.70
2023-03-05T20:51:22.853Z,8.70
2023-03-05T20:57:25.927Z,9.20
2023-03-05T21:03:29.990Z,9.10
2023-03-05T21:09:33.012Z,8.80
2023-03-05T21:15:36.052Z,8.40
2023-03-05T21:21:44.734Z,8.00
2023-03-05T21:28:01.710Z,8.00
2023-03-05T21:34:04.712Z,7.40
2023-03-05T21:40:10.431Z,7.40
2023-03-05T21:46:15.533Z,8.00
2023-03-05T21:52:19.343Z,7.90
2023-03-05T21:58:24.338Z,8.60
2023-03-05T22:04:28.954Z,9.00
2023-03-05T22:10:32.775Z,8.90
2023-03-05T22:16:36.548Z,9.90
2023-03-05T22:22:39.991Z,9.70
2023-03-05T22:28:42.865Z,9.70
2023-03-05T22:34:45.817Z,8.80
2023-03-05T22:40:49.564Z,8.40
2023-03-05T22:46:52.635Z,9.80
2023-03-05T22:52:55.747Z,10.40
2023-03-05T22:58:58.799Z,10.10
2023-03-05T23:05:03.476Z,9.60
2023-03-05T23:11:11.019Z,10.20
2023-03-05T23:17:15.278Z,10.10
2023-03-05T23:23:18.105Z,9.70
2023-03-05T23:29:21.066Z,10.00
2023-03-05T23:35:34.876Z,10.10
2023-03-05T23:41:37.741Z,10.50
2023-03-05T23:47:43.452Z,9.70
2023-03-05T23:53:46.544Z,10.40
2023-03-05T23:59:51.570Z,9.70
